sensor_id;sensor_type;location;lat;lon;timestamp;temperature;humidity
18868;DHT22;9563;49.240;9.088;2022-08-01T00:02:21;21.30;99.90
18868;DHT22;9563;49.240;9.088;2022-08-01T00:04:48;21.30;99.90
18868;DHT22;9563;49.240;9.088;2022-08-01T00:07:15;21.30;99.90
18868;DHT22;9563;49.240;9.088;2022-08-01T00:09:43;21.20;99.90
18868;DHT22;9563;49.240;9.088;2022-08-01T00:12:10;21.20;99.90
18868;DHT22;9563;49.240;9.088;2022-08-01T00:14:37;21.20;99.90
18868;DHT22;9563;49.240;9.088;2022-08-01T00:17:05;21.20;99.90
18868;DHT22;9563;49.240;9.088;2022-08-01T00:19:32;21.20;99.90
18868;DHT22;9563;49.240;9.088;2022-08-01T00:21:58;21.20;99.90
18868;DHT22;9563;49.240;9.088;2022-08-01T00:24:25;21.20;99.90
18868;DHT22;9563;49.240;9.088;2022-08-01T00:26:54;21.10;99.90
18868;DHT22;9563;49.240;9.088;2022-08-01T00:29:21;21.20;99.90
18868;DHT22;9563;49.240;9.088;2022-08-01T00:31:47;21.20;99.90
18868;DHT22;9563;49.240;9.088;2022-08-01T00:34:14;21.10;99.90
18868;DHT22;9563;49.240;9.088;2022-08-01T00:36:41;21.10;99.90
18868;DHT22;9563;49.240;9.088;2022-08-01T00:39:08;21.00;99.90
18868;DHT22;9563;49.240;9.088;2022-08-01T00:41:35;21.00;99.90
18868;DHT22;9563;49.240;9.088;2022-08-01T00:44:04;21.10;99.90
18868;DHT22;9563;49.240;9.088;2022-08-01T00:46:32;21.00;99.90
18868;DHT22;9563;49.240;9.088;2022-08-01T00:49:00;20.90;99.90
18868;DHT22;9563;49.240;9.088;2022-08-01T00:51:27;20.80;99.90
18868;DHT22;9563;49.240;9.088;2022-08-01T00:53:54;20.80;99.90
18868;DHT22;9563;49.240;9.088;2022-08-01T00:56:24;20.70;99.90
18868;DHT22;9563;49.240;9.088;2022-08-01T00:58:51;20.50;99.90
18868;DHT22;9563;49.240;9.088;2022-08-01T01:01:19;20.50;99.90
18868;DHT22;9563;49.240;9.088;2022-08-01T01:03:47;20.40;99.90
18868;DHT22;9563;49.240;9.088;2022-08-01T01:06:23;20.50;99.90
18868;DHT22;9563;49.240;9.088;2022-08-01T01:09:01;20.50;99.90
18868;DHT22;9563;49.240;9.088;2022-08-01T01:11:39;20.60;99.90
18868;DHT22;9563;49.240;9.088;2022-08-01T01:14:13;20.60;99.90
18868;DHT22;9563;49.240;9.088;2022-08-01T01:16:44;20.60;99.90
18868;DHT22;9563;49.240;9.088;2022-08-01T01:19:17;20.60;99.90
18868;DHT22;9563;49.240;9.088;2022-08-01T01:24:45;20.50;99.90
18868;DHT22;9563;49.240;9.088;2022-08-01T01:27:21;20.40;99.90
18868;DHT22;9563;49.240;9.088;2022-08-01T01:29:54;20.40;99.90
18868;DHT22;9563;49.240;9.088;2022-08-01T01:32:26;20.30;99.90
18868;DHT22;9563;49.240;9.088;2022-08-01T01:34:59;20.20;99.90
18868;DHT22;9563;49.240;9.088;2022-08-01T01:37:27;20.20;99.90
18868;DHT22;9563;49.240;9.088;2022-08-01T01:39:56;20.00;99.90
18868;DHT22;9563;49.240;9.088;2022-08-01T01:42:25;20.00;99.90
18868;DHT22;9563;49.240;9.088;2022-08-01T01:44:54;19.90;99.90
18868;DHT22;9563;49.240;9.088;2022-08-01T01:47:22;19.90;99.90
18868;DHT22;9563;49.240;9.088;2022-08-01T01:49:50;19.90;99.90
18868;DHT22;9563;49.240;9.088;2022-08-01T01:52:20;19.80;99.90
18868;DHT22;9563;49.240;9.088;2022-08-01T01:54:57;19.80;99.90
18868;DHT22;9563;49.240;9.088;2022-08-01T01:57:42;19.80;99.90
18868;DHT22;9563;49.240;9.088;2022-08-01T02:00:12;19.80;99.90
18868;DHT22;9563;49.240;9.088;2022-08-01T02:02:41;19.80;99.90
18868;DHT22;9563;49.240;9.088;2022-08-01T02:05:14;19.70;99.90
18868;DHT22;9563;49.240;9.088;2022-08-01T02:07:41;19.70;99.90
18868;DHT22;9563;49.240;9.088;2022-08-01T02:10:11;19.70;99.90
18868;DHT22;9563;49.240;9.088;2022-08-01T02:12:41;19.70;99.90
18868;DHT22;9563;49.240;9.088;2022-08-01T02:15:13;19.50;99.90
18868;DHT22;9563;49.240;9.088;2022-08-01T02:17:43;19.40;99.90
18868;DHT22;9563;49.240;9.088;2022-08-01T02:20:11;19.30;99.90
18868;DHT22;9563;49.240;9.088;2022-08-01T02:22:42;19.30;99.90
18868;DHT22;9563;49.240;9.088;2022-08-01T02:25:15;19.30;99.90
18868;DHT22;9563;49.240;9.088;2022-08-01T02:27:47;19.20;99.90
18868;DHT22;9563;49.240;9.088;2022-08-01T02:30:19;19.20;99.90
18868;DHT22;9563;49.240;9.088;2022-08-01T02:32:49;19.30;99.90
18868;DHT22;9563;49.240;9.088;2022-08-01T02:35:20;19.20;99.90
18868;DHT22;9563;49.240;9.088;2022-08-01T02:37:49;19.10;99.90
18868;DHT22;9563;49.240;9.088;2022-08-01T02:40:17;19.00;99.90
18868;DHT22;9563;49.240;9.088;2022-08-01T02:42:47;18.90;99.90
18868;DHT22;9563;49.240;9.088;2022-08-01T02:45:19;18.90;99.90
18868;DHT22;9563;49.240;9.088;2022-08-01T02:47:48;18.80;99.90
18868;DHT22;9563;49.240;9.088;2022-08-01T02:50:16;18.70;99.90
18868;DHT22;9563;49.240;9.088;2022-08-01T02:52:47;18.70;99.90
18868;DHT22;9563;49.240;9.088;2022-08-01T02:55:15;18.70;99.90
18868;DHT22;9563;49.240;9.088;2022-08-01T02:57:44;18.60;99.90
18868;DHT22;9563;49.240;9.088;2022-08-01T03:00:13;18.70;99.90
18868;DHT22;9563;49.240;9.088;2022-08-01T03:02:43;18.70;99.90
18868;DHT22;9563;49.240;9.088;2022-08-01T03:05:12;18.70;99.90
18868;DHT22;9563;49.240;9.088;2022-08-01T03:07:39;18.80;99.90
18868;DHT22;9563;49.240;9.088;2022-08-01T03:10:08;18.80;99.90
18868;DHT22;9563;49.240;9.088;2022-08-01T03:12:37;18.80;99.90
18868;DHT22;9563;49.240;9.088;2022-08-01T03:15:06;18.80;99.90
18868;DHT22;9563;49.240;9.088;2022-08-01T03:17:36;18.80;99.90
18868;DHT22;9563;49.240;9.088;2022-08-01T03:20:07;18.80;99.90
18868;DHT22;9563;49.240;9.088;2022-08-01T03:22:37;18.80;99.90
18868;DHT22;9563;49.240;9.088;2022-08-01T03:25:06;18.80;99.90
18868;DHT22;9563;49.240;9.088;2022-08-01T03:27:35;18.80;99.90
18868;DHT22;9563;49.240;9.088;2022-08-01T03:30:04;18.70;99.90
18868;DHT22;9563;49.240;9.088;2022-08-01T03:32:31;18.70;99.90
18868;DHT22;9563;49.240;9.088;2022-08-01T03:34:58;18.70;99.90
18868;DHT22;9563;49.240;9.088;2022-08-01T03:37:29;18.70;99.90
18868;DHT22;9563;49.240;9.088;2022-08-01T03:40:00;18.70;99.90
18868;DHT22;9563;49.240;9.088;2022-08-01T03:42:32;18.70;99.90
18868;DHT22;9563;49.240;9.088;2022-08-01T03:45:03;18.70;99.90
18868;DHT22;9563;49.240;9.088;2022-08-01T03:47:32;18.70;99.90
18868;DHT22;9563;49.240;9.088;2022-08-01T03:50:01;18.70;99.90
18868;DHT22;9563;49.240;9.088;2022-08-01T03:52:32;18.70;99.90
18868;DHT22;9563;49.240;9.088;2022-08-01T03:55:04;18.70;99.90
18868;DHT22;9563;49.240;9.088;2022-08-01T03:57:33;18.70;99.90
18868;DHT22;9563;49.240;9.088;2022-08-01T04:00:00;18.70;99.90
18868;DHT22;9563;49.240;9.088;2022-08-01T04:02:28;18.70;99.90
18868;DHT22;9563;49.240;9.088;2022-08-01T04:04:55;18.70;99.90
18868;DHT22;9563;49.240;9.088;2022-08-01T04:07:23;18.70;99.90
18868;DHT22;9563;49.240;9.088;2022-08-01T04:09:52;18.70;99.90
18868;DHT22;9563;49.240;9.088;2022-08-01T04:12:19;18.70;99.90
18868;DHT22;9563;49.240;9.088;2022-08-01T04:14:46;18.70;99.90
18868;DHT22;9563;49.240;9.088;2022-08-01T04:17:14;18.70;99.90
18868;DHT22;9563;49.240;9.088;2022-08-01T04:19:41;18.70;99.90
18868;DHT22;9563;49.240;9.088;2022-08-01T04:22:09;18.70;99.90
18868;DHT22;9563;49.240;9.088;2022-08-01T04:24:37;18.80;99.90
18868;DHT22;9563;49.240;9.088;2022-08-01T04:27:11;18.90;99.90
18868;DHT22;9563;49.240;9.088;2022-08-01T04:29:40;19.00;99.90
18868;DHT22;9563;49.240;9.088;2022-08-01T04:32:11;19.00;99.90
18868;DHT22;9563;49.240;9.088;2022-08-01T04:34:41;19.10;99.90
18868;DHT22;9563;49.240;9.088;2022-08-01T04:37:12;19.10;99.90
18868;DHT22;9563;49.240;9.088;2022-08-01T04:39:43;19.20;99.90
18868;DHT22;9563;49.240;9.088;2022-08-01T04:42:14;19.20;99.90
18868;DHT22;9563;49.240;9.088;2022-08-01T04:44:42;19.30;99.90
18868;DHT22;9563;49.240;9.088;2022-08-01T04:47:09;19.40;99.90
18868;DHT22;9563;49.240;9.088;2022-08-01T04:49:36;19.40;99.90
18868;DHT22;9563;49.240;9.088;2022-08-01T04:52:04;19.50;99.90
18868;DHT22;9563;49.240;9.088;2022-08-01T04:54:34;19.60;99.90
18868;DHT22;9563;49.240;9.088;2022-08-01T04:57:03;19.70;99.90
18868;DHT22;9563;49.240;9.088;2022-08-01T04:59:33;19.70;99.90
18868;DHT22;9563;49.240;9.088;2022-08-01T05:02:08;19.70;99.90
18868;DHT22;9563;49.240;9.088;2022-08-01T05:04:36;19.80;99.90
18868;DHT22;9563;49.240;9.088;2022-08-01T05:07:03;19.80;99.90
18868;DHT22;9563;49.240;9.088;2022-08-01T05:09:30;19.80;99.90
18868;DHT22;9563;49.240;9.088;2022-08-01T05:11:57;19.80;99.90
18868;DHT22;9563;49.240;9.088;2022-08-01T05:14:25;19.90;99.90
18868;DHT22;9563;49.240;9.088;2022-08-01T05:16:53;19.90;99.90
18868;DHT22;9563;49.240;9.088;2022-08-01T05:19:21;19.90;99.90
18868;DHT22;9563;49.240;9.088;2022-08-01T05:21:48;19.90;99.90
18868;DHT22;9563;49.240;9.088;2022-08-01T05:24:15;19.90;99.90
18868;DHT22;9563;49.240;9.088;2022-08-01T05:26:42;20.00;99.90
18868;DHT22;9563;49.240;9.088;2022-08-01T05:29:09;20.10;99.90
18868;DHT22;9563;49.240;9.088;2022-08-01T05:31:36;20.10;99.90
18868;DHT22;9563;49.240;9.088;2022-08-01T05:34:04;20.10;99.90
18868;DHT22;9563;49.240;9.088;2022-08-01T05:36:32;20.20;99.90
18868;DHT22;9563;49.240;9.088;2022-08-01T05:38:59;20.20;99.90
18868;DHT22;9563;49.240;9.088;2022-08-01T05:41:26;20.20;99.90
18868;DHT22;9563;49.240;9.088;2022-08-01T05:43:53;20.30;99.90
18868;DHT22;9563;49.240;9.088;2022-08-01T05:46:20;20.40;99.90
18868;DHT22;9563;49.240;9.088;2022-08-01T05:48:47;20.40;99.90
18868;DHT22;9563;49.240;9.088;2022-08-01T05:51:15;20.50;99.90
18868;DHT22;9563;49.240;9.088;2022-08-01T05:53:42;20.60;99.90
18868;DHT22;9563;49.240;9.088;2022-08-01T05:56:09;20.60;99.90
18868;DHT22;9563;49.240;9.088;2022-08-01T05:58:36;20.70;99.90
18868;DHT22;9563;49.240;9.088;2022-08-01T06:01:03;20.80;99.90
18868;DHT22;9563;49.240;9.088;2022-08-01T06:03:30;20.90;99.90
18868;DHT22;9563;49.240;9.088;2022-08-01T06:05:59;20.90;99.90
18868;DHT22;9563;49.240;9.088;2022-08-01T06:08:28;21.00;99.90
18868;DHT22;9563;49.240;9.088;2022-08-01T06:10:55;21.00;99.90
18868;DHT22;9563;49.240;9.088;2022-08-01T06:13:22;21.00;99.90
18868;DHT22;9563;49.240;9.088;2022-08-01T06:15:49;21.10;99.90
18868;DHT22;9563;49.240;9.088;2022-08-01T06:18:16;21.10;99.90
18868;DHT22;9563;49.240;9.088;2022-08-01T06:20:43;21.20;99.90
18868;DHT22;9563;49.240;9.088;2022-08-01T06:23:10;21.30;99.90
18868;DHT22;9563;49.240;9.088;2022-08-01T06:25:39;21.30;99.90
18868;DHT22;9563;49.240;9.088;2022-08-01T06:28:06;21.30;99.90
18868;DHT22;9563;49.240;9.088;2022-08-01T06:30:33;21.40;99.90
18868;DHT22;9563;49.240;9.088;2022-08-01T06:33:00;21.50;99.90
18868;DHT22;9563;49.240;9.088;2022-08-01T06:35:28;21.60;99.90
18868;DHT22;9563;49.240;9.088;2022-08-01T06:37:55;21.70;99.90
18868;DHT22;9563;49.240;9.088;2022-08-01T06:40:22;21.90;99.90
18868;DHT22;9563;49.240;9.088;2022-08-01T06:42:50;22.00;99.90
18868;DHT22;9563;49.240;9.088;2022-08-01T06:45:17;22.20;99.90
18868;DHT22;9563;49.240;9.088;2022-08-01T06:47:48;22.30;99.90
18868;DHT22;9563;49.240;9.088;2022-08-01T06:50:15;22.40;99.90
18868;DHT22;9563;49.240;9.088;2022-08-01T06:52:42;22.50;99.90
18868;DHT22;9563;49.240;9.088;2022-08-01T06:55:09;22.50;99.90
18868;DHT22;9563;49.240;9.088;2022-08-01T06:57:42;22.70;99.90
18868;DHT22;9563;49.240;9.088;2022-08-01T07:00:14;22.80;99.90
18868;DHT22;9563;49.240;9.088;2022-08-01T07:02:42;22.90;99.90
18868;DHT22;9563;49.240;9.088;2022-08-01T07:05:09;22.90;99.90
18868;DHT22;9563;49.240;9.088;2022-08-01T07:07:36;23.00;99.90
18868;DHT22;9563;49.240;9.088;2022-08-01T07:10:03;23.00;99.90
18868;DHT22;9563;49.240;9.088;2022-08-01T07:12:30;23.10;99.90
18868;DHT22;9563;49.240;9.088;2022-08-01T07:14:58;23.20;99.90
18868;DHT22;9563;49.240;9.088;2022-08-01T07:17:27;23.30;99.90
18868;DHT22;9563;49.240;9.088;2022-08-01T07:19:54;23.30;99.90
18868;DHT22;9563;49.240;9.088;2022-08-01T07:22:21;23.30;99.90
18868;DHT22;9563;49.240;9.088;2022-08-01T07:24:48;23.60;99.90
18868;DHT22;9563;49.240;9.088;2022-08-01T07:27:15;23.70;99.90
18868;DHT22;9563;49.240;9.088;2022-08-01T07:29:42;23.70;99.90
18868;DHT22;9563;49.240;9.088;2022-08-01T07:32:09;23.60;99.90
18868;DHT22;9563;49.240;9.088;2022-08-01T07:34:38;23.50;99.90
18868;DHT22;9563;49.240;9.088;2022-08-01T07:37:04;23.40;99.90
18868;DHT22;9563;49.240;9.088;2022-08-01T07:39:31;23.50;99.90
18868;DHT22;9563;49.240;9.088;2022-08-01T07:41:58;23.90;99.90
18868;DHT22;9563;49.240;9.088;2022-08-01T07:44:25;24.40;99.90
18868;DHT22;9563;49.240;9.088;2022-08-01T07:46:52;24.70;99.90
18868;DHT22;9563;49.240;9.088;2022-08-01T07:49:19;25.10;99.90
18868;DHT22;9563;49.240;9.088;2022-08-01T07:51:48;25.20;99.90
18868;DHT22;9563;49.240;9.088;2022-08-01T07:54:15;25.20;99.90
18868;DHT22;9563;49.240;9.088;2022-08-01T07:56:42;25.00;99.90
18868;DHT22;9563;49.240;9.088;2022-08-01T07:59:09;24.80;99.90
18868;DHT22;9563;49.240;9.088;2022-08-01T08:01:36;24.90;99.90
18868;DHT22;9563;49.240;9.088;2022-08-01T08:04:03;25.10;99.90
18868;DHT22;9563;49.240;9.088;2022-08-01T08:06:30;25.60;99.90
18868;DHT22;9563;49.240;9.088;2022-08-01T08:08:59;25.80;99.90
18868;DHT22;9563;49.240;9.088;2022-08-01T08:11:26;26.00;99.90
18868;DHT22;9563;49.240;9.088;2022-08-01T08:13:53;26.30;99.90
18868;DHT22;9563;49.240;9.088;2022-08-01T08:16:20;26.70;99.90
18868;DHT22;9563;49.240;9.088;2022-08-01T08:18:47;27.00;99.90
18868;DHT22;9563;49.240;9.088;2022-08-01T08:21:14;27.30;99.90
18868;DHT22;9563;49.240;9.088;2022-08-01T08:23:41;27.60;99.90
18868;DHT22;9563;49.240;9.088;2022-08-01T08:26:27;28.00;99.90
18868;DHT22;9563;49.240;9.088;2022-08-01T08:28:53;28.10;99.90
18868;DHT22;9563;49.240;9.088;2022-08-01T08:31:20;28.10;99.90
18868;DHT22;9563;49.240;9.088;2022-08-01T08:33:48;28.30;99.90
18868;DHT22;9563;49.240;9.088;2022-08-01T08:36:15;28.30;99.90
18868;DHT22;9563;49.240;9.088;2022-08-01T08:38:42;27.90;99.90
18868;DHT22;9563;49.240;9.088;2022-08-01T08:41:09;27.50;99.90
18868;DHT22;9563;49.240;9.088;2022-08-01T08:43:38;27.10;99.90
18868;DHT22;9563;49.240;9.088;2022-08-01T08:46:08;26.90;99.90
18868;DHT22;9563;49.240;9.088;2022-08-01T08:48:35;27.00;99.90
18868;DHT22;9563;49.240;9.088;2022-08-01T08:51:03;27.00;99.90
18868;DHT22;9563;49.240;9.088;2022-08-01T08:53:31;26.60;99.90
18868;DHT22;9563;49.240;9.088;2022-08-01T08:55:59;26.70;99.90
18868;DHT22;9563;49.240;9.088;2022-08-01T08:58:26;26.80;99.90
18868;DHT22;9563;49.240;9.088;2022-08-01T09:00:55;27.00;99.90
18868;DHT22;9563;49.240;9.088;2022-08-01T09:03:22;27.20;99.90
18868;DHT22;9563;49.240;9.088;2022-08-01T09:05:49;27.20;99.90
18868;DHT22;9563;49.240;9.088;2022-08-01T09:08:16;27.40;99.90
18868;DHT22;9563;49.240;9.088;2022-08-01T09:10:45;27.40;99.90
18868;DHT22;9563;49.240;9.088;2022-08-01T09:13:13;27.60;99.90
18868;DHT22;9563;49.240;9.088;2022-08-01T09:15:42;27.80;99.90
18868;DHT22;9563;49.240;9.088;2022-08-01T09:18:27;27.80;99.90
18868;DHT22;9563;49.240;9.088;2022-08-01T09:21:11;28.00;99.90
18868;DHT22;9563;49.240;9.088;2022-08-01T09:23:41;28.00;99.90
18868;DHT22;9563;49.240;9.088;2022-08-01T09:26:10;27.60;99.90
18868;DHT22;9563;49.240;9.088;2022-08-01T09:28:38;27.70;99.90
18868;DHT22;9563;49.240;9.088;2022-08-01T09:31:07;27.90;99.90
18868;DHT22;9563;49.240;9.088;2022-08-01T09:33:52;28.30;99.90
18868;DHT22;9563;49.240;9.088;2022-08-01T09:36:20;28.70;99.90
18868;DHT22;9563;49.240;9.088;2022-08-01T09:38:48;28.80;99.90
18868;DHT22;9563;49.240;9.088;2022-08-01T09:41:15;29.30;99.90
18868;DHT22;9563;49.240;9.088;2022-08-01T09:43:48;29.50;98.00
18868;DHT22;9563;49.240;9.088;2022-08-01T09:46:16;29.50;98.10
18868;DHT22;9563;49.240;9.088;2022-08-01T09:48:57;29.00;98.40
18868;DHT22;9563;49.240;9.088;2022-08-01T09:51:29;28.80;97.30
18868;DHT22;9563;49.240;9.088;2022-08-01T09:53:56;28.60;98.30
18868;DHT22;9563;49.240;9.088;2022-08-01T09:56:24;28.80;98.10
18868;DHT22;9563;49.240;9.088;2022-08-01T09:58:53;29.00;97.30
18868;DHT22;9563;49.240;9.088;2022-08-01T10:01:21;29.40;98.60
18868;DHT22;9563;49.240;9.088;2022-08-01T10:04:08;29.10;96.10
18868;DHT22;9563;49.240;9.088;2022-08-01T10:06:35;29.50;98.50
18868;DHT22;9563;49.240;9.088;2022-08-01T10:09:02;29.90;97.90
18868;DHT22;9563;49.240;9.088;2022-08-01T10:11:32;30.00;96.10
18868;DHT22;9563;49.240;9.088;2022-08-01T10:13:59;30.00;96.40
18868;DHT22;9563;49.240;9.088;2022-08-01T10:16:28;29.70;95.10
18868;DHT22;9563;49.240;9.088;2022-08-01T10:18:57;29.40;95.90
18868;DHT22;9563;49.240;9.088;2022-08-01T10:21:27;28.90;96.80
18868;DHT22;9563;49.240;9.088;2022-08-01T10:23:55;28.60;96.20
18868;DHT22;9563;49.240;9.088;2022-08-01T10:26:26;28.90;96.90
18868;DHT22;9563;49.240;9.088;2022-08-01T10:28:54;29.40;96.30
18868;DHT22;9563;49.240;9.088;2022-08-01T10:31:21;29.20;94.70
18868;DHT22;9563;49.240;9.088;2022-08-01T10:33:49;29.20;95.90
18868;DHT22;9563;49.240;9.088;2022-08-01T10:36:18;28.90;95.10
18868;DHT22;9563;49.240;9.088;2022-08-01T10:38:47;28.70;95.70
18868;DHT22;9563;49.240;9.088;2022-08-01T10:41:15;28.90;95.60
18868;DHT22;9563;49.240;9.088;2022-08-01T10:43:45;29.40;97.30
18868;DHT22;9563;49.240;9.088;2022-08-01T10:46:12;29.40;96.30
18868;DHT22;9563;49.240;9.088;2022-08-01T10:48:44;29.30;96.30
18868;DHT22;9563;49.240;9.088;2022-08-01T10:51:13;29.10;97.00
18868;DHT22;9563;49.240;9.088;2022-08-01T10:53:47;28.80;96.70
18868;DHT22;9563;49.240;9.088;2022-08-01T10:56:14;28.60;97.20
18868;DHT22;9563;49.240;9.088;2022-08-01T10:58:43;28.40;97.00
18868;DHT22;9563;49.240;9.088;2022-08-01T11:01:19;28.40;97.20
18868;DHT22;9563;49.240;9.088;2022-08-01T11:04:08;28.40;96.70
18868;DHT22;9563;49.240;9.088;2022-08-01T11:06:51;28.30;96.30
18868;DHT22;9563;49.240;9.088;2022-08-01T11:09:39;28.40;98.40
18868;DHT22;9563;49.240;9.088;2022-08-01T11:12:09;28.40;97.00
18868;DHT22;9563;49.240;9.088;2022-08-01T11:17:42;28.30;96.20
18868;DHT22;9563;49.240;9.088;2022-08-01T11:20:14;28.20;96.50
18868;DHT22;9563;49.240;9.088;2022-08-01T11:26:12;28.00;97.50
18868;DHT22;9563;49.240;9.088;2022-08-01T11:28:41;28.10;98.40
18868;DHT22;9563;49.240;9.088;2022-08-01T11:31:30;28.20;96.70
18868;DHT22;9563;49.240;9.088;2022-08-01T11:33:58;28.40;98.40
18868;DHT22;9563;49.240;9.088;2022-08-01T11:36:26;28.80;98.50
18868;DHT22;9563;49.240;9.088;2022-08-01T11:39:14;28.90;96.00
18868;DHT22;9563;49.240;9.088;2022-08-01T11:41:44;28.80;96.80
18868;DHT22;9563;49.240;9.088;2022-08-01T11:44:13;28.70;96.50
18868;DHT22;9563;49.240;9.088;2022-08-01T11:46:52;28.60;96.50
18868;DHT22;9563;49.240;9.088;2022-08-01T11:49:28;28.30;94.80
18868;DHT22;9563;49.240;9.088;2022-08-01T11:52:05;28.10;95.90
18868;DHT22;9563;49.240;9.088;2022-08-01T11:54:35;27.80;96.50
18868;DHT22;9563;49.240;9.088;2022-08-01T11:57:04;27.70;97.70
18868;DHT22;9563;49.240;9.088;2022-08-01T11:59:37;27.60;97.60
18868;DHT22;9563;49.240;9.088;2022-08-01T12:02:04;27.60;98.80
18868;DHT22;9563;49.240;9.088;2022-08-01T12:04:48;27.50;97.60
18868;DHT22;9563;49.240;9.088;2022-08-01T12:07:17;27.70;98.50
18868;DHT22;9563;49.240;9.088;2022-08-01T12:09:44;27.90;99.40
18868;DHT22;9563;49.240;9.088;2022-08-01T12:12:15;28.00;98.70
18868;DHT22;9563;49.240;9.088;2022-08-01T12:14:43;28.00;98.40
18868;DHT22;9563;49.240;9.088;2022-08-01T12:17:11;28.20;98.10
18868;DHT22;9563;49.240;9.088;2022-08-01T12:19:38;28.20;97.10
18868;DHT22;9563;49.240;9.088;2022-08-01T12:22:08;28.40;97.90
18868;DHT22;9563;49.240;9.088;2022-08-01T12:24:36;28.60;97.90
18868;DHT22;9563;49.240;9.088;2022-08-01T12:27:04;28.70;96.40
18868;DHT22;9563;49.240;9.088;2022-08-01T12:29:34;29.10;95.90
18868;DHT22;9563;49.240;9.088;2022-08-01T12:32:02;29.50;95.00
18868;DHT22;9563;49.240;9.088;2022-08-01T12:34:29;29.60;93.40
18868;DHT22;9563;49.240;9.088;2022-08-01T12:37:00;29.70;93.70
18868;DHT22;9563;49.240;9.088;2022-08-01T12:39:32;29.90;93.40
18868;DHT22;9563;49.240;9.088;2022-08-01T12:41:59;30.10;92.70
18868;DHT22;9563;49.240;9.088;2022-08-01T12:44:28;30.30;92.20
18868;DHT22;9563;49.240;9.088;2022-08-01T12:47:09;30.60;92.20
18868;DHT22;9563;49.240;9.088;2022-08-01T12:49:43;30.90;91.20
18868;DHT22;9563;49.240;9.088;2022-08-01T12:52:11;31.10;91.00
18868;DHT22;9563;49.240;9.088;2022-08-01T12:55:04;31.10;87.20
18868;DHT22;9563;49.240;9.088;2022-08-01T12:57:32;30.80;89.70
18868;DHT22;9563;49.240;9.088;2022-08-01T13:00:10;30.50;88.40
18868;DHT22;9563;49.240;9.088;2022-08-01T13:02:40;30.70;90.40
18868;DHT22;9563;49.240;9.088;2022-08-01T13:05:09;30.60;88.10
18868;DHT22;9563;49.240;9.088;2022-08-01T13:07:42;30.40;87.30
18868;DHT22;9563;49.240;9.088;2022-08-01T13:10:10;30.40;89.30
18868;DHT22;9563;49.240;9.088;2022-08-01T13:12:38;30.10;87.80
18868;DHT22;9563;49.240;9.088;2022-08-01T13:15:22;29.90;88.80
18868;DHT22;9563;49.240;9.088;2022-08-01T13:17:51;29.90;90.90
18868;DHT22;9563;49.240;9.088;2022-08-01T13:20:31;30.30;92.00
18868;DHT22;9563;49.240;9.088;2022-08-01T13:23:12;30.80;90.20
18868;DHT22;9563;49.240;9.088;2022-08-01T13:25:57;30.90;88.10
18868;DHT22;9563;49.240;9.088;2022-08-01T13:28:26;30.90;87.40
18868;DHT22;9563;49.240;9.088;2022-08-01T13:30:55;30.90;89.60
18868;DHT22;9563;49.240;9.088;2022-08-01T13:33:28;30.70;85.50
18868;DHT22;9563;49.240;9.088;2022-08-01T13:36:06;30.50;89.50
18868;DHT22;9563;49.240;9.088;2022-08-01T13:38:33;30.50;90.90
18868;DHT22;9563;49.240;9.088;2022-08-01T13:41:18;30.40;89.60
18868;DHT22;9563;49.240;9.088;2022-08-01T13:43:45;30.20;90.20
18868;DHT22;9563;49.240;9.088;2022-08-01T13:46:12;30.20;86.10
18868;DHT22;9563;49.240;9.088;2022-08-01T13:48:41;29.90;85.50
18868;DHT22;9563;49.240;9.088;2022-08-01T13:51:08;29.50;86.50
18868;DHT22;9563;49.240;9.088;2022-08-01T13:53:38;29.60;89.40
18868;DHT22;9563;49.240;9.088;2022-08-01T13:56:08;29.70;87.00
18868;DHT22;9563;49.240;9.088;2022-08-01T13:58:36;29.70;88.40
18868;DHT22;9563;49.240;9.088;2022-08-01T14:01:03;29.80;90.20
18868;DHT22;9563;49.240;9.088;2022-08-01T14:03:30;29.70;90.50
18868;DHT22;9563;49.240;9.088;2022-08-01T14:05:59;29.60;90.00
18868;DHT22;9563;49.240;9.088;2022-08-01T14:08:26;29.40;89.10
18868;DHT22;9563;49.240;9.088;2022-08-01T14:10:53;29.30;86.60
18868;DHT22;9563;49.240;9.088;2022-08-01T14:13:22;29.00;87.00
18868;DHT22;9563;49.240;9.088;2022-08-01T14:15:50;29.20;87.50
18868;DHT22;9563;49.240;9.088;2022-08-01T14:18:17;29.50;91.30
18868;DHT22;9563;49.240;9.088;2022-08-01T14:20:44;29.70;89.00
18868;DHT22;9563;49.240;9.088;2022-08-01T14:23:13;29.80;89.20
18868;DHT22;9563;49.240;9.088;2022-08-01T14:25:40;29.60;90.40
18868;DHT22;9563;49.240;9.088;2022-08-01T14:28:10;29.40;89.00
18868;DHT22;9563;49.240;9.088;2022-08-01T14:30:38;29.10;88.70
18868;DHT22;9563;49.240;9.088;2022-08-01T14:33:06;28.90;89.40
18868;DHT22;9563;49.240;9.088;2022-08-01T14:35:33;28.90;90.20
18868;DHT22;9563;49.240;9.088;2022-08-01T14:38:00;28.80;90.80
18868;DHT22;9563;49.240;9.088;2022-08-01T14:40:29;28.70;91.10
18868;DHT22;9563;49.240;9.088;2022-08-01T14:42:56;28.60;90.60
18868;DHT22;9563;49.240;9.088;2022-08-01T14:45:23;28.50;92.00
18868;DHT22;9563;49.240;9.088;2022-08-01T14:47:50;28.40;91.60
18868;DHT22;9563;49.240;9.088;2022-08-01T14:50:17;28.30;91.70
18868;DHT22;9563;49.240;9.088;2022-08-01T14:52:46;28.40;91.90
18868;DHT22;9563;49.240;9.088;2022-08-01T14:55:13;28.50;91.80
18868;DHT22;9563;49.240;9.088;2022-08-01T14:57:41;28.70;92.80
18868;DHT22;9563;49.240;9.088;2022-08-01T15:00:09;28.70;91.00
18868;DHT22;9563;49.240;9.088;2022-08-01T15:02:38;28.80;91.40
18868;DHT22;9563;49.240;9.088;2022-08-01T15:05:06;28.70;90.50
18868;DHT22;9563;49.240;9.088;2022-08-01T15:07:34;28.70;91.30
18868;DHT22;9563;49.240;9.088;2022-08-01T15:10:01;28.70;90.30
18868;DHT22;9563;49.240;9.088;2022-08-01T15:12:28;28.50;90.00
18868;DHT22;9563;49.240;9.088;2022-08-01T15:14:56;28.50;91.30
18868;DHT22;9563;49.240;9.088;2022-08-01T15:17:26;28.30;91.80
18868;DHT22;9563;49.240;9.088;2022-08-01T15:19:57;28.30;92.30
18868;DHT22;9563;49.240;9.088;2022-08-01T15:22:26;28.10;92.00
18868;DHT22;9563;49.240;9.088;2022-08-01T15:24:54;27.90;91.40
18868;DHT22;9563;49.240;9.088;2022-08-01T15:27:22;27.80;90.90
18868;DHT22;9563;49.240;9.088;2022-08-01T15:29:50;27.80;91.20
18868;DHT22;9563;49.240;9.088;2022-08-01T15:32:18;27.60;91.50
18868;DHT22;9563;49.240;9.088;2022-08-01T15:34:45;27.60;91.70
18868;DHT22;9563;49.240;9.088;2022-08-01T15:37:13;27.50;91.70
18868;DHT22;9563;49.240;9.088;2022-08-01T15:39:41;27.50;90.70
18868;DHT22;9563;49.240;9.088;2022-08-01T15:42:10;27.50;92.30
18868;DHT22;9563;49.240;9.088;2022-08-01T15:44:38;27.50;91.90
18868;DHT22;9563;49.240;9.088;2022-08-01T15:47:06;27.50;92.70
18868;DHT22;9563;49.240;9.088;2022-08-01T15:49:35;27.50;92.60
18868;DHT22;9563;49.240;9.088;2022-08-01T15:52:03;27.50;92.60
18868;DHT22;9563;49.240;9.088;2022-08-01T15:54:30;27.60;92.50
18868;DHT22;9563;49.240;9.088;2022-08-01T15:56:57;27.70;92.30
18868;DHT22;9563;49.240;9.088;2022-08-01T15:59:25;27.70;92.30
18868;DHT22;9563;49.240;9.088;2022-08-01T16:01:51;27.70;91.80
18868;DHT22;9563;49.240;9.088;2022-08-01T16:04:19;27.60;92.00
18868;DHT22;9563;49.240;9.088;2022-08-01T16:06:48;27.50;92.00
18868;DHT22;9563;49.240;9.088;2022-08-01T16:09:15;27.50;92.80